Time;durP1;ratioP1;P1;durP2;ratioP2;P2;SDS_P1;SDS_P2;PMS_P1;PMS_P2;Temp;Humidity;BMP_temperature;BMP_pressure;BME280_temperature;BME280_humidity;BME280_pressure;Samples;Min_cycle;Max_cycle;Signal;HPM_P1;HPM_P2
2022/12/26 00:02:21;;;;;;;2.90;2.30;;;9.60;99.90;;;;;;4953177;29;20585;-70
2022/12/26 00:04:48;;;;;;;4.38;2.90;;;9.60;99.90;;;;;;4953123;29;20205;-69
2022/12/26 00:07:16;;;;;;;3.35;2.45;;;9.60;99.90;;;;;;4952987;29;20221;-70
2022/12/26 00:09:43;;;;;;;3.53;2.35;;;9.60;99.90;;;;;;4952291;29;20205;-70
2022/12/26 00:12:10;;;;;;;2.72;2.20;;;9.50;99.90;;;;;;4952822;29;20227;-71
2022/12/26 00:14:36;;;;;;;2.35;2.05;;;9.50;99.90;;;;;;4953003;29;20208;-70
2022/12/26 00:17:03;;;;;;;2.47;2.10;;;9.40;99.90;;;;;;4952650;29;20683;-70
2022/12/26 00:19:30;;;;;;;4.97;2.35;;;9.40;99.90;;;;;;4952390;29;20231;-71
2022/12/26 00:21:56;;;;;;;1.65;1.50;;;9.30;99.90;;;;;;4952805;29;20204;-70
2022/12/26 00:24:24;;;;;;;2.95;2.10;;;9.30;99.90;;;;;;4952877;29;20204;-70
2022/12/26 00:26:51;;;;;;;2.80;2.20;;;9.30;99.90;;;;;;4952857;29;20227;-70
2022/12/26 00:29:18;;;;;;;3.95;2.05;;;9.40;99.90;;;;;;4952197;29;20233;-70
2022/12/26 00:31:45;;;;;;;1.58;1.42;;;9.30;99.90;;;;;;4952988;29;20204;-70
2022/12/26 00:34:12;;;;;;;2.50;2.17;;;9.40;99.90;;;;;;4952774;29;20590;-70
2022/12/26 00:36:38;;;;;;;2.90;1.67;;;9.40;99.90;;;;;;4952914;29;20216;-69
2022/12/26 00:39:05;;;;;;;2.30;2.10;;;9.40;99.90;;;;;;4951842;29;20229;-70
2022/12/26 00:41:33;;;;;;;2.33;2.13;;;9.30;99.90;;;;;;4953013;29;20216;-70
2022/12/26 00:44:00;;;;;;;3.17;2.10;;;9.30;99.90;;;;;;4952546;29;20222;-70
2022/12/26 00:46:27;;;;;;;3.75;2.10;;;9.30;99.90;;;;;;4952892;29;20211;-70
2022/12/26 00:48:54;;;;;;;3.00;2.50;;;9.20;99.90;;;;;;4952014;29;20228;-70
2022/12/26 00:51:20;;;;;;;2.13;1.90;;;9.10;99.90;;;;;;4952760;29;20208;-70
2022/12/26 00:53:47;;;;;;;2.63;2.28;;;9.20;99.90;;;;;;4952622;29;20600;-70
2022/12/26 00:56:14;;;;;;;2.28;2.08;;;9.20;99.90;;;;;;4952451;29;20584;-69
2022/12/26 00:58:42;;;;;;;3.03;2.22;;;9.20;99.90;;;;;;4951989;29;20224;-70
2022/12/26 01:01:12;;;;;;;2.47;1.80;;;9.20;99.90;;;;;;4953343;28;20215;-70
2022/12/26 01:03:39;;;;;;;3.17;2.15;;;9.10;99.90;;;;;;4956632;29;20196;-70
2022/12/26 01:06:06;;;;;;;2.10;1.75;;;9.10;99.90;;;;;;4956240;29;20208;-70
2022/12/26 01:08:33;;;;;;;3.45;1.90;;;9.10;99.90;;;;;;4955546;29;20629;-69
2022/12/26 01:11:04;;;;;;;3.90;2.40;;;9.00;99.90;;;;;;4956399;29;20204;-70
2022/12/26 01:13:30;;;;;;;2.10;1.85;;;8.90;99.90;;;;;;4956403;28;20702;-71
2022/12/26 01:15:58;;;;;;;2.22;1.92;;;8.90;99.90;;;;;;4956322;29;20216;-70
2022/12/26 01:18:25;;;;;;;2.60;1.98;;;8.80;99.90;;;;;;4955600;29;20217;-70
2022/12/26 01:20:52;;;;;;;2.10;1.90;;;8.80;99.90;;;;;;4956135;29;20200;-69
2022/12/26 01:23:18;;;;;;;1.98;1.80;;;8.80;99.90;;;;;;4955936;29;20211;-70
2022/12/26 01:25:45;;;;;;;2.90;2.17;;;8.70;99.90;;;;;;4956057;29;20646;-70
2022/12/26 01:28:12;;;;;;;2.55;2.10;;;8.70;99.90;;;;;;4955420;29;20240;-70
2022/12/26 01:30:38;;;;;;;2.92;2.42;;;8.70;99.90;;;;;;4955708;29;20211;-70
2022/12/26 01:33:06;;;;;;;2.88;1.80;;;8.60;99.90;;;;;;4955834;29;20219;-70
2022/12/26 01:35:33;;;;;;;4.25;2.30;;;8.60;99.90;;;;;;4955978;29;20209;-70
2022/12/26 01:38:00;;;;;;;2.55;2.33;;;8.60;99.90;;;;;;4955566;28;20248;-71
2022/12/26 01:40:27;;;;;;;1.70;1.60;;;8.60;99.90;;;;;;4955537;29;20208;-70
2022/12/26 01:42:53;;;;;;;3.00;2.17;;;8.60;99.90;;;;;;4955537;29;20680;-69
2022/12/26 01:45:28;;;;;;;2.10;1.90;;;8.60;99.90;;;;;;4955647;29;20211;-70
2022/12/26 01:48:02;;;;;;;2.30;2.10;;;8.60;99.90;;;;;;4955445;28;20234;-69
2022/12/26 01:50:39;;;;;;;2.58;2.03;;;8.60;99.90;;;;;;4955282;29;20211;-69
2022/12/26 01:53:12;;;;;;;2.05;1.85;;;8.60;99.90;;;;;;4955469;29;20215;-69
2022/12/26 01:55:40;;;;;;;1.67;1.55;;;8.60;99.90;;;;;;4955564;29;20216;-69
2022/12/26 01:58:11;;;;;;;2.30;2.10;;;8.60;99.90;;;;;;4955321;29;20224;-69
2022/12/26 02:00:38;;;;;;;2.20;1.98;;;8.60;99.90;;;;;;4955252;29;20205;-70
2022/12/26 02:05:56;;;;;;;2.03;1.90;;;8.70;99.90;;;;;;4954976;29;20211;-69
2022/12/26 02:08:27;;;;;;;1.83;1.70;;;8.80;99.90;;;;;;4954719;29;20224;-70
2022/12/26 02:11:00;;;;;;;3.83;2.00;;;9.00;99.90;;;;;;4955135;29;20212;-70
2022/12/26 02:13:28;;;;;;;2.63;2.10;;;9.00;99.90;;;;;;4954584;28;20204;-69
2022/12/26 02:15:56;;;;;;;3.13;1.80;;;9.10;99.90;;;;;;4954945;29;20201;-70
2022/12/26 02:18:23;;;;;;;2.17;1.70;;;9.10;99.90;;;;;;4954398;29;20224;-70
2022/12/26 02:21:11;;;;;;;2.65;1.60;;;9.20;99.90;;;;;;4954957;29;20585;-70
2022/12/26 02:23:57;;;;;;;2.03;1.83;;;9.30;99.90;;;;;;4955036;29;20204;-69
2022/12/26 02:27:02;;;;;;;2.40;1.85;;;9.40;99.90;;;;;;4955031;29;20240;-70
2022/12/26 02:30:04;;;;;;;2.00;1.80;;;9.50;99.90;;;;;;4954282;29;20208;-69
2022/12/26 02:32:55;;;;;;;1.98;1.77;;;9.70;99.90;;;;;;4954995;28;20260;-68
2022/12/26 02:35:32;;;;;;;1.95;1.75;;;9.70;99.90;;;;;;4942318;29;20204;-69
2022/12/26 02:38:13;;;;;;;2.33;1.65;;;9.70;99.90;;;;;;4954524;29;20232;-70
2022/12/26 02:40:51;;;;;;;2.33;1.50;;;9.70;99.90;;;;;;4954496;29;20248;-69
2022/12/26 02:43:25;;;;;;;2.05;1.80;;;9.70;99.90;;;;;;4954802;29;20216;-69
2022/12/26 02:48:57;;;;;;;2.00;1.55;;;9.90;99.90;;;;;;4953989;29;20243;-69
2022/12/26 03:14:27;;;;;;;3.95;1.95;;;10.30;99.90;;;;;;4954179;29;20225;-68
2022/12/26 03:19:59;;;;;;;5.35;2.40;;;10.30;99.90;;;;;;4953628;29;20204;-70
2022/12/26 03:22:33;;;;;;;2.50;2.25;;;10.30;99.90;;;;;;4953973;29;20244;-70
2022/12/26 03:27:46;;;;;;;1.90;1.70;;;10.30;99.90;;;;;;4953782;29;20312;-70
2022/12/26 03:32:58;;;;;;;2.10;1.90;;;10.20;99.90;;;;;;4953729;29;20215;-68
2022/12/26 03:35:29;;;;;;;2.42;1.83;;;10.20;99.90;;;;;;4953820;29;20212;-70
2022/12/26 03:38:04;;;;;;;2.58;2.28;;;10.20;99.90;;;;;;4953540;29;20612;-69
2022/12/26 04:20:54;;;;;;;2.15;1.95;;;10.10;99.90;;;;;;4953232;29;20267;-70
2022/12/26 04:45:50;;;;;;;2.15;1.92;;;10.30;99.90;;;;;;4953639;29;20575;-69
2022/12/26 04:51:02;;;;;;;1.77;1.60;;;10.30;99.90;;;;;;4953557;29;20200;-69
2022/12/26 04:53:28;;;;;;;1.48;1.38;;;10.40;99.90;;;;;;4953109;29;20213;-69
2022/12/26 04:55:55;;;;;;;3.92;1.70;;;10.40;99.90;;;;;;4953480;29;20204;-70
2022/12/26 04:58:23;;;;;;;2.00;1.75;;;10.30;99.90;;;;;;4952776;29;20231;-70
2022/12/26 05:00:51;;;;;;;5.68;1.65;;;10.30;99.90;;;;;;4953569;29;20581;-68
2022/12/26 05:11:46;;;;;;;2.28;1.85;;;10.30;99.90;;;;;;4894110;29;20236;-70
2022/12/26 05:14:12;;;;;;;1.92;1.73;;;10.30;99.90;;;;;;4926952;28;20300;-69
2022/12/26 05:30:29;;;;;;;1.85;1.40;;;10.10;99.90;;;;;;4952594;29;20207;-69
2022/12/26 05:35:42;;;;;;;1.88;1.70;;;10.10;99.90;;;;;;4953004;29;20567;-69
2022/12/26 05:38:10;;;;;;;1.80;1.70;;;10.20;99.90;;;;;;4952903;29;20217;-69
2022/12/26 05:40:36;;;;;;;2.10;1.60;;;10.20;99.90;;;;;;4952743;29;20209;-69
2022/12/26 05:43:03;;;;;;;2.40;2.20;;;10.20;99.90;;;;;;4953021;29;20205;-69
2022/12/26 05:45:30;;;;;;;2.00;1.50;;;10.20;99.90;;;;;;4953013;29;20204;-70
2022/12/26 05:47:59;;;;;;;1.90;1.70;;;10.20;99.90;;;;;;4953109;28;20221;-69
2022/12/26 05:50:26;;;;;;;1.77;1.42;;;10.30;99.90;;;;;;4955775;29;20205;-70
2022/12/26 05:52:53;;;;;;;1.60;1.50;;;10.30;99.90;;;;;;4956493;29;20208;-70
2022/12/26 05:55:20;;;;;;;1.88;1.73;;;10.30;99.90;;;;;;4956528;29;20204;-70
2022/12/26 05:57:46;;;;;;;1.75;1.65;;;10.30;99.90;;;;;;4956137;29;20236;-70
2022/12/26 06:00:14;;;;;;;2.40;1.90;;;10.30;99.90;;;;;;4955544;29;20209;-69
2022/12/26 06:02:41;;;;;;;3.38;1.90;;;10.30;99.90;;;;;;4955811;29;20208;-70
2022/12/26 06:05:10;;;;;;;3.63;1.70;;;10.40;99.90;;;;;;4956385;29;20581;-69
2022/12/26 06:07:36;;;;;;;1.90;1.80;;;10.40;99.90;;;;;;4955703;29;20228;-70
2022/12/26 06:10:05;;;;;;;1.85;1.65;;;10.40;99.90;;;;;;4955658;29;20641;-69
2022/12/26 06:12:32;;;;;;;1.60;1.48;;;10.30;99.90;;;;;;4955788;29;20968;-70
2022/12/26 06:14:58;;;;;;;1.95;1.55;;;10.30;99.90;;;;;;4956039;29;20208;-70
2022/12/26 06:17:25;;;;;;;3.40;1.77;;;10.30;99.90;;;;;;4954522;28;20226;-69
2022/12/26 06:19:52;;;;;;;5.15;1.80;;;10.40;99.90;;;;;;4952802;28;20209;-70
2022/12/26 06:22:20;;;;;;;3.60;1.98;;;10.40;99.90;;;;;;4954731;28;20591;-67
2022/12/26 06:24:46;;;;;;;1.92;1.73;;;10.40;99.90;;;;;;4954990;28;20240;-70
2022/12/26 06:27:13;;;;;;;3.92;1.95;;;10.40;99.90;;;;;;4955061;28;20578;-70
2022/12/26 06:29:40;;;;;;;2.40;1.80;;;10.40;99.90;;;;;;4954166;28;20713;-70
2022/12/26 06:32:06;;;;;;;2.20;2.00;;;10.40;99.90;;;;;;4954906;28;20256;-70
2022/12/26 06:34:33;;;;;;;4.00;2.30;;;10.40;99.90;;;;;;4954547;28;20224;-68
2022/12/26 06:37:00;;;;;;;2.35;1.42;;;10.40;99.90;;;;;;4954856;28;20209;-70
2022/12/26 06:39:28;;;;;;;1.67;1.30;;;10.40;99.90;;;;;;4953705;28;20224;-70
2022/12/26 06:41:55;;;;;;;2.00;1.70;;;10.50;99.90;;;;;;4954596;28;20689;-69
2022/12/26 06:44:21;;;;;;;1.70;1.40;;;10.40;99.90;;;;;;4964286;28;20300;-69
2022/12/26 06:46:48;;;;;;;2.25;2.05;;;10.50;99.90;;;;;;4973868;28;20204;-68
2022/12/26 06:49:15;;;;;;;2.03;1.80;;;10.50;99.90;;;;;;4973187;28;20634;-70
2022/12/26 06:51:43;;;;;;;2.78;1.90;;;10.50;99.90;;;;;;4974040;28;20211;-70
2022/12/26 06:54:11;;;;;;;2.15;1.95;;;10.60;99.90;;;;;;4973763;28;20262;-70
2022/12/26 06:56:39;;;;;;;1.70;1.42;;;10.60;99.90;;;;;;4973546;28;20282;-70
2022/12/26 06:59:06;;;;;;;1.92;1.70;;;10.60;99.90;;;;;;4972934;28;20216;-69
2022/12/26 07:01:34;;;;;;;2.00;1.70;;;10.60;99.90;;;;;;4973457;28;20212;-70
2022/12/26 07:04:03;;;;;;;2.35;1.80;;;10.60;99.90;;;;;;4973447;28;20207;-69
2022/12/26 07:06:31;;;;;;;1.80;1.70;;;10.60;99.90;;;;;;4972791;28;20292;-69
2022/12/26 07:09:00;;;;;;;2.00;1.60;;;10.50;99.90;;;;;;4972871;28;20225;-69
2022/12/26 07:11:29;;;;;;;2.60;2.17;;;10.50;99.90;;;;;;4973588;28;20212;-70
2022/12/26 07:13:57;;;;;;;3.13;1.70;;;10.50;99.90;;;;;;4973185;28;20208;-70
2022/12/26 07:16:24;;;;;;;2.50;1.73;;;10.50;99.90;;;;;;4973310;28;20208;-69
2022/12/26 07:18:52;;;;;;;1.83;1.65;;;10.50;99.90;;;;;;4972757;28;20726;-70
2022/12/26 07:21:19;;;;;;;2.53;1.90;;;10.40;99.90;;;;;;4972986;28;20232;-70
2022/12/26 07:23:46;;;;;;;2.10;1.90;;;10.40;99.90;;;;;;4972046;28;20279;-70
2022/12/26 07:26:12;;;;;;;2.15;1.95;;;10.40;99.90;;;;;;4947401;28;20200;-70
2022/12/26 07:28:39;;;;;;;2.15;1.95;;;10.40;99.90;;;;;;4951011;29;20692;-69
2022/12/26 07:31:07;;;;;;;2.03;1.80;;;10.40;99.90;;;;;;4953222;28;20943;-69
2022/12/26 07:33:34;;;;;;;4.22;2.15;;;10.40;99.90;;;;;;4953606;28;20693;-68
2022/12/26 07:36:02;;;;;;;2.20;2.00;;;10.40;99.90;;;;;;4953615;28;20218;-69
2022/12/26 07:38:28;;;;;;;1.88;1.77;;;10.40;99.90;;;;;;4952565;28;20251;-68
2022/12/26 07:40:56;;;;;;;2.20;2.00;;;10.30;99.90;;;;;;4953519;28;20212;-69
2022/12/26 07:43:22;;;;;;;2.50;2.10;;;10.30;99.90;;;;;;4953223;28;20208;-68
2022/12/26 07:45:49;;;;;;;4.85;1.73;;;10.30;99.90;;;;;;4953499;28;20684;-68
2022/12/26 07:48:18;;;;;;;1.85;1.50;;;10.30;99.90;;;;;;4952562;28;20232;-68
2022/12/26 07:50:46;;;;;;;2.85;2.05;;;10.30;99.90;;;;;;4953695;28;20216;-68
2022/12/26 07:53:12;;;;;;;2.42;2.08;;;10.30;99.90;;;;;;4955530;28;20215;-68
2022/12/26 07:55:39;;;;;;;2.50;2.00;;;10.40;99.90;;;;;;4953047;28;20212;-68
2022/12/26 07:58:06;;;;;;;2.00;1.80;;;10.30;99.90;;;;;;4949974;28;20221;-69
2022/12/26 08:00:32;;;;;;;2.17;1.98;;;10.30;99.90;;;;;;4966793;28;20199;-69
2022/12/26 08:02:59;;;;;;;2.83;2.25;;;10.20;99.90;;;;;;4955861;28;20600;-68
2022/12/26 08:05:27;;;;;;;2.25;2.00;;;10.20;99.90;;;;;;4953321;29;20207;-68
2022/12/26 08:07:54;;;;;;;2.60;1.90;;;10.20;99.90;;;;;;4952916;29;20232;-66
2022/12/26 08:10:21;;;;;;;2.30;2.00;;;10.10;99.90;;;;;;4952081;28;20229;-68
2022/12/26 08:12:47;;;;;;;5.65;2.33;;;10.10;99.90;;;;;;4952361;28;20204;-67
2022/12/26 08:15:14;;;;;;;1.90;1.60;;;10.10;99.90;;;;;;4952604;29;20208;-70
2022/12/26 08:17:41;;;;;;;2.40;2.20;;;10.10;99.90;;;;;;4952742;29;20232;-68
2022/12/26 08:20:08;;;;;;;3.10;2.40;;;10.10;99.90;;;;;;4951588;29;20207;-70
2022/12/26 08:22:36;;;;;;;2.28;1.67;;;10.10;99.90;;;;;;4953077;29;20275;-70
2022/12/26 08:25:03;;;;;;;2.08;1.88;;;10.10;99.90;;;;;;4953178;29;20259;-70
2022/12/26 08:27:30;;;;;;;2.15;1.95;;;10.10;99.90;;;;;;4952299;28;20259;-70
2022/12/26 08:29:57;;;;;;;2.20;2.00;;;10.10;99.90;;;;;;4951514;28;20220;-70
2022/12/26 08:32:23;;;;;;;2.20;1.98;;;10.00;99.90;;;;;;4952350;29;20219;-69
2022/12/26 08:34:50;;;;;;;2.25;2.03;;;10.10;99.90;;;;;;4948023;28;20201;-69
2022/12/26 08:37:17;;;;;;;3.35;2.25;;;10.10;99.90;;;;;;4954384;28;20216;-69
2022/12/26 08:39:45;;;;;;;2.20;1.67;;;10.10;99.90;;;;;;4951071;28;20209;-67
2022/12/26 08:42:11;;;;;;;3.05;1.50;;;10.10;99.90;;;;;;4950833;28;20227;-69
2022/12/26 08:44:38;;;;;;;2.55;2.35;;;10.10;99.90;;;;;;4951216;28;20220;-69
2022/12/26 08:47:05;;;;;;;3.08;2.22;;;10.20;99.90;;;;;;4951142;28;20587;-70
2022/12/26 08:49:31;;;;;;;2.47;2.28;;;10.20;99.90;;;;;;4952963;28;20315;-70
2022/12/26 08:51:58;;;;;;;2.40;2.03;;;10.20;99.90;;;;;;4951325;28;20704;-69
2022/12/26 08:54:25;;;;;;;2.88;2.33;;;10.10;99.90;;;;;;4952313;29;20590;-69
2022/12/26 08:56:53;;;;;;;2.03;1.85;;;10.10;99.90;;;;;;4951395;29;20223;-69
2022/12/26 08:59:20;;;;;;;2.75;2.05;;;10.10;99.90;;;;;;4951089;29;20902;-69
2022/12/26 09:01:47;;;;;;;3.97;2.40;;;10.10;99.90;;;;;;4951842;29;20216;-69
2022/12/26 09:04:14;;;;;;;3.15;2.70;;;10.10;99.90;;;;;;4951533;28;20208;-70
2022/12/26 09:06:41;;;;;;;3.10;1.80;;;10.10;99.90;;;;;;4951842;29;20209;-69
2022/12/26 09:09:10;;;;;;;2.95;2.10;;;10.10;99.90;;;;;;4950572;29;20299;-69
2022/12/26 09:11:40;;;;;;;2.95;2.05;;;10.10;99.90;;;;;;4951325;29;20298;-69
2022/12/26 09:14:08;;;;;;;3.55;2.80;;;10.10;99.90;;;;;;4951666;29;20565;-70
2022/12/26 09:16:41;;;;;;;3.22;2.22;;;10.20;99.90;;;;;;4952015;29;20585;-70
2022/12/26 09:19:11;;;;;;;2.17;1.98;;;10.20;99.90;;;;;;4950574;29;20228;-70
2022/12/26 09:21:38;;;;;;;4.07;2.60;;;10.20;99.90;;;;;;4951207;28;20231;-69
2022/12/26 09:24:08;;;;;;;2.30;1.90;;;10.20;99.90;;;;;;4955103;29;20590;-70
2022/12/26 09:26:34;;;;;;;2.28;2.08;;;10.20;99.90;;;;;;4955227;29;20212;-69
2022/12/26 09:29:02;;;;;;;2.95;1.85;;;10.20;99.90;;;;;;4954712;28;20248;-69
2022/12/26 09:31:32;;;;;;;3.20;2.05;;;10.10;99.90;;;;;;4955185;29;20213;-69
2022/12/26 09:34:00;;;;;;;2.72;2.47;;;10.10;99.90;;;;;;4954634;29;20215;-69
2022/12/26 09:36:29;;;;;;;2.72;2.40;;;10.00;99.90;;;;;;4955164;29;20204;-69
2022/12/26 09:38:57;;;;;;;3.80;2.60;;;10.00;99.90;;;;;;4954559;29;20237;-70
2022/12/26 09:41:44;;;;;;;4.78;2.83;;;9.90;99.90;;;;;;4955196;29;20213;-69
2022/12/26 09:44:17;;;;;;;4.05;2.80;;;9.90;99.90;;;;;;4950301;29;20239;-69
2022/12/26 09:47:03;;;;;;;2.20;1.92;;;9.90;99.90;;;;;;4957097;28;20219;-69
2022/12/26 09:49:33;;;;;;;3.55;2.40;;;9.90;99.90;;;;;;4958409;28;20607;-69
2022/12/26 09:52:05;;;;;;;2.95;2.65;;;9.80;99.90;;;;;;4954347;28;20236;-69
2022/12/26 09:54:34;;;;;;;3.75;2.83;;;9.80;99.90;;;;;;4954935;28;20245;-69
2022/12/26 09:57:05;;;;;;;2.38;2.17;;;9.80;99.90;;;;;;4953961;28;20211;-69
2022/12/26 09:59:43;;;;;;;3.30;2.65;;;9.80;99.90;;;;;;4953693;28;20630;-69
2022/12/26 10:02:17;;;;;;;2.80;2.30;;;9.90;99.90;;;;;;4954108;28;20216;-69
2022/12/26 10:04:44;;;;;;;3.90;3.00;;;9.90;99.90;;;;;;4954517;28;20224;-69
2022/12/26 10:07:20;;;;;;;4.15;2.90;;;9.90;99.90;;;;;;4954929;28;20696;-69
2022/12/26 10:10:01;;;;;;;3.42;2.55;;;9.90;99.90;;;;;;4948125;28;20238;-69
2022/12/26 10:12:46;;;;;;;3.95;2.97;;;9.90;99.90;;;;;;4953251;28;20212;-69
2022/12/26 10:15:33;;;;;;;5.90;3.33;;;9.90;99.90;;;;;;4953387;28;20700;-69
2022/12/26 10:18:10;;;;;;;2.50;2.30;;;9.90;99.90;;;;;;4952909;28;20252;-69
2022/12/26 10:20:51;;;;;;;3.42;3.13;;;9.90;99.90;;;;;;4953502;28;20212;-70
2022/12/26 10:23:31;;;;;;;2.75;2.50;;;9.90;99.90;;;;;;4952477;28;20213;-69
2022/12/26 10:26:05;;;;;;;3.17;2.53;;;9.80;99.90;;;;;;4953158;28;20228;-69
2022/12/26 10:28:36;;;;;;;4.65;2.60;;;9.80;99.90;;;;;;4967861;28;20246;-69
2022/12/26 10:31:07;;;;;;;4.60;2.95;;;9.80;99.90;;;;;;4950902;28;20232;-70
2022/12/26 10:33:45;;;;;;;3.63;2.55;;;9.80;99.90;;;;;;4932636;29;20209;-69
2022/12/26 10:36:28;;;;;;;4.00;3.20;;;9.80;99.90;;;;;;4933251;29;20851;-69
2022/12/26 10:38:58;;;;;;;5.40;2.40;;;9.80;99.90;;;;;;4933452;29;20236;-70
2022/12/26 10:41:28;;;;;;;5.10;3.10;;;9.80;99.90;;;;;;4933550;29;20229;-69
2022/12/26 10:43:54;;;;;;;3.08;2.58;;;9.80;99.90;;;;;;4933656;29;20221;-69
2022/12/26 10:46:38;;;;;;;3.50;2.88;;;9.80;99.90;;;;;;4933631;29;20213;-69
2022/12/26 10:49:10;;;;;;;3.67;2.80;;;9.80;99.90;;;;;;4929635;29;20642;-69
2022/12/26 10:51:37;;;;;;;3.13;2.50;;;9.80;99.90;;;;;;4931989;29;20353;-69
2022/12/26 10:54:13;;;;;;;5.18;2.95;;;9.80;99.90;;;;;;4930943;29;20260;-69
2022/12/26 10:56:40;;;;;;;3.53;2.60;;;9.80;99.90;;;;;;4930739;29;20215;-69
2022/12/26 10:59:15;;;;;;;3.15;2.50;;;9.80;99.90;;;;;;4930770;29;20252;-69
2022/12/26 11:01:46;;;;;;;3.35;2.30;;;9.80;99.90;;;;;;4931552;29;20214;-69
2022/12/26 11:04:19;;;;;;;2.80;2.17;;;9.90;99.90;;;;;;4930581;29;20216;-69
2022/12/26 11:06:51;;;;;;;2.75;2.30;;;9.90;99.90;;;;;;4930668;28;20768;-69
2022/12/26 11:09:33;;;;;;;2.30;1.95;;;9.90;99.90;;;;;;4952932;28;20256;-69
2022/12/26 11:12:00;;;;;;;3.00;1.77;;;9.90;99.90;;;;;;4970296;28;20215;-69
2022/12/26 11:14:31;;;;;;;1.70;1.60;;;9.90;99.90;;;;;;4955266;28;20223;-69
2022/12/26 11:16:59;;;;;;;1.73;1.63;;;9.80;99.90;;;;;;4952516;28;20244;-69
2022/12/26 11:19:29;;;;;;;1.90;1.70;;;9.90;99.90;;;;;;4952115;28;20235;-69
2022/12/26 11:22:22;;;;;;;1.80;1.65;;;9.90;99.90;;;;;;4951563;28;20223;-69
2022/12/26 11:25:10;;;;;;;1.50;1.40;;;9.90;99.90;;;;;;4951705;28;20593;-69
2022/12/26 11:27:38;;;;;;;2.17;1.80;;;9.90;99.90;;;;;;4952182;28;20224;-69
2022/12/26 11:30:28;;;;;;;1.60;1.40;;;9.90;99.90;;;;;;4951246;28;20693;-70
2022/12/26 11:33:10;;;;;;;1.80;1.33;;;10.00;99.90;;;;;;4952387;28;20219;-69
2022/12/26 11:35:46;;;;;;;1.40;1.30;;;10.00;99.90;;;;;;4952653;28;20212;-70
2022/12/26 11:38:33;;;;;;;1.75;1.30;;;10.10;99.90;;;;;;4950348;28;20263;-69
2022/12/26 11:43:52;;;;;;;1.40;1.30;;;10.00;99.90;;;;;;4942221;28;20685;-70
2022/12/26 11:46:20;;;;;;;1.38;1.27;;;9.90;99.90;;;;;;4951012;28;20245;-69
2022/12/26 11:48:49;;;;;;;1.92;1.50;;;9.90;99.90;;;;;;4952468;28;20225;-69
2022/12/26 11:51:39;;;;;;;1.40;1.25;;;9.90;99.90;;;;;;4951643;28;20715;-70
2022/12/26 11:54:22;;;;;;;1.73;1.30;;;9.90;99.90;;;;;;4952182;28;20213;-70
2022/12/26 11:56:59;;;;;;;1.45;1.10;;;9.90;99.90;;;;;;4950658;28;20213;-69
2022/12/26 11:59:25;;;;;;;1.75;1.20;;;9.80;99.90;;;;;;4951815;28;20224;-69
2022/12/26 12:02:16;;;;;;;1.42;0.98;;;9.80;99.90;;;;;;4951681;28;20596;-69
2022/12/26 12:04:44;;;;;;;2.00;1.38;;;9.80;99.90;;;;;;4952670;28;20696;-69
2022/12/26 12:07:24;;;;;;;2.97;1.40;;;9.80;99.90;;;;;;4952155;28;20209;-69
2022/12/26 12:09:58;;;;;;;1.40;1.10;;;9.90;99.90;;;;;;4949183;28;20695;-69
2022/12/26 12:12:29;;;;;;;0.98;0.88;;;10.00;99.90;;;;;;4952102;28;20220;-69
2022/12/26 12:15:02;;;;;;;1.65;1.10;;;10.00;99.90;;;;;;4952340;28;20308;-69
2022/12/26 12:17:36;;;;;;;1.35;1.25;;;10.10;99.90;;;;;;4952394;28;20216;-70
2022/12/26 12:20:17;;;;;;;1.17;1.08;;;10.10;99.90;;;;;;4949944;28;20633;-70
2022/12/26 12:23:10;;;;;;;1.20;1.10;;;10.10;99.90;;;;;;4952703;28;20212;-71
2022/12/26 12:25:50;;;;;;;1.10;1.00;;;10.10;99.90;;;;;;4948413;28;20583;-69
2022/12/26 12:28:47;;;;;;;1.30;0.95;;;10.00;99.90;;;;;;4950713;28;20250;-69
2022/12/26 12:31:24;;;;;;;2.88;1.58;;;9.90;99.90;;;;;;4948231;28;20238;-70
2022/12/26 12:33:56;;;;;;;2.53;1.60;;;10.00;99.90;;;;;;4952483;28;20205;-70
2022/12/26 12:36:32;;;;;;;1.42;1.20;;;10.00;99.90;;;;;;4952644;28;20216;-70
2022/12/26 12:39:11;;;;;;;1.90;1.40;;;9.90;99.90;;;;;;4950883;28;20223;-70
2022/12/26 12:42:12;;;;;;;1.52;1.40;;;10.00;99.90;;;;;;4952343;28;20201;-70
2022/12/26 12:44:56;;;;;;;1.42;1.10;;;10.00;99.90;;;;;;4935503;28;20219;-70
2022/12/26 12:47:32;;;;;;;1.25;1.08;;;10.10;99.90;;;;;;4951960;28;20619;-70
2022/12/26 12:50:04;;;;;;;2.55;1.30;;;10.10;99.90;;;;;;4951504;28;20204;-69
2022/12/26 12:52:41;;;;;;;1.55;1.10;;;10.10;99.90;;;;;;4952382;28;20204;-70
2022/12/26 12:55:54;;;;;;;1.70;1.20;;;10.10;99.90;;;;;;4952477;28;20266;-69
2022/12/26 12:58:26;;;;;;;1.20;1.10;;;10.10;99.90;;;;;;4936176;28;20239;-69
2022/12/26 13:00:59;;;;;;;1.23;1.00;;;10.10;99.90;;;;;;4956292;28;20228;-69
2022/12/26 13:03:32;;;;;;;1.40;1.15;;;10.10;99.90;;;;;;4954793;28;20205;-69
2022/12/26 13:06:05;;;;;;;1.33;1.17;;;10.10;99.90;;;;;;4955041;28;20208;-69
2022/12/26 13:08:38;;;;;;;1.10;1.00;;;10.10;99.90;;;;;;4955661;28;20224;-69
2022/12/26 13:11:12;;;;;;;1.10;1.00;;;10.10;99.90;;;;;;4954830;28;20220;-70
2022/12/26 13:13:45;;;;;;;1.08;0.98;;;10.00;99.90;;;;;;4955865;28;20676;-69
2022/12/26 13:16:16;;;;;;;3.47;1.23;;;10.00;99.90;;;;;;4952748;28;20591;-69
2022/12/26 13:18:49;;;;;;;1.17;1.00;;;9.90;99.90;;;;;;4954341;28;20224;-69
2022/12/26 13:21:18;;;;;;;2.70;1.20;;;9.90;99.90;;;;;;4954817;28;20215;-69
2022/12/26 13:26:39;;;;;;;1.40;1.10;;;9.80;99.90;;;;;;4955539;29;20291;-69
2022/12/26 13:29:12;;;;;;;1.08;0.95;;;9.80;99.90;;;;;;4953720;28;20235;-69
2022/12/26 13:31:40;;;;;;;1.02;0.90;;;9.70;99.90;;;;;;4954731;28;20235;-69
2022/12/26 13:34:09;;;;;;;1.27;0.88;;;9.70;99.90;;;;;;4954449;28;20211;-69
2022/12/26 13:36:40;;;;;;;1.17;1.08;;;9.70;99.90;;;;;;4954948;28;20699;-69
2022/12/26 13:39:39;;;;;;;1.00;0.90;;;9.70;99.90;;;;;;4953551;28;20741;-69
2022/12/26 13:45:58;;;;;;;1.65;1.00;;;9.70;99.90;;;;;;4954558;29;20218;-69
2022/12/26 13:49:01;;;;;;;1.38;1.10;;;9.80;99.90;;;;;;4953973;28;20231;-69
2022/12/26 13:51:59;;;;;;;1.02;0.80;;;9.70;99.90;;;;;;4955044;28;20238;-70
2022/12/26 13:54:27;;;;;;;1.35;1.23;;;9.70;99.90;;;;;;4954161;28;20216;-69
2022/12/26 13:57:35;;;;;;;1.70;1.27;;;9.70;99.90;;;;;;4954695;28;20212;-69
2022/12/26 14:00:13;;;;;;;1.75;1.23;;;9.60;99.90;;;;;;4953948;28;20236;-69
2022/12/26 14:03:11;;;;;;;1.90;1.10;;;9.60;99.90;;;;;;4954984;28;20212;-69
2022/12/26 14:05:45;;;;;;;1.08;0.98;;;9.60;99.90;;;;;;4954880;28;20212;-69
2022/12/26 14:08:27;;;;;;;2.00;1.60;;;9.60;99.90;;;;;;4943427;28;20737;-69
2022/12/26 14:11:05;;;;;;;1.33;1.23;;;9.60;99.90;;;;;;4939366;29;20740;-70
2022/12/26 14:13:52;;;;;;;1.20;1.10;;;9.60;99.90;;;;;;4936109;29;20209;-70
2022/12/26 14:16:27;;;;;;;1.60;1.00;;;9.60;99.90;;;;;;4936219;29;20200;-70
2022/12/26 14:19:05;;;;;;;1.40;1.10;;;9.60;99.90;;;;;;4935532;29;20224;-69
2022/12/26 14:21:43;;;;;;;1.65;1.10;;;9.50;99.90;;;;;;4935958;29;20212;-70
2022/12/26 14:24:30;;;;;;;1.48;1.38;;;9.50;99.90;;;;;;4935834;29;20209;-69
2022/12/26 14:27:13;;;;;;;1.33;1.10;;;9.60;99.90;;;;;;4935867;29;20208;-69
2022/12/26 14:29:48;;;;;;;1.55;1.05;;;9.50;99.90;;;;;;4935158;29;20592;-69
2022/12/26 14:32:28;;;;;;;1.20;1.10;;;9.60;99.90;;;;;;4935567;29;20258;-69
2022/12/26 14:35:05;;;;;;;1.20;1.10;;;9.50;99.90;;;;;;4935663;29;20685;-69
2022/12/26 14:37:42;;;;;;;1.25;1.13;;;9.50;99.90;;;;;;4935874;29;20562;-68
2022/12/26 14:40:25;;;;;;;1.20;1.10;;;9.60;99.90;;;;;;4943953;28;20214;-69
2022/12/26 14:43:19;;;;;;;1.10;0.82;;;9.60;99.90;;;;;;4954618;29;20913;-69
2022/12/26 14:45:50;;;;;;;1.50;1.38;;;9.60;99.90;;;;;;4944621;29;20208;-69
2022/12/26 14:48:40;;;;;;;1.67;1.17;;;9.60;99.90;;;;;;4954164;29;20698;-69
2022/12/26 14:51:45;;;;;;;3.05;1.30;;;9.60;99.90;;;;;;4954288;29;20241;-70
2022/12/26 14:54:35;;;;;;;1.15;1.05;;;9.60;99.90;;;;;;4954312;29;20216;-69
2022/12/26 14:57:52;;;;;;;1.30;1.08;;;9.50;99.90;;;;;;4954463;29;20211;-69
2022/12/26 15:00:31;;;;;;;1.25;1.10;;;9.50;99.90;;;;;;4953815;29;20231;-69
2022/12/26 15:03:27;;;;;;;1.23;1.10;;;9.50;99.90;;;;;;4954269;29;20251;-69
2022/12/26 15:06:14;;;;;;;1.90;1.35;;;9.40;99.90;;;;;;4954311;29;20204;-69
2022/12/26 15:09:00;;;;;;;1.45;1.20;;;9.40;99.90;;;;;;4953717;29;20232;-68
2022/12/26 15:11:57;;;;;;;1.80;1.10;;;9.40;99.90;;;;;;4954116;29;20224;-69
2022/12/26 15:14:47;;;;;;;1.63;1.10;;;9.30;99.90;;;;;;4954414;29;20207;-69
2022/12/26 15:17:22;;;;;;;2.47;1.52;;;9.30;99.90;;;;;;4953873;29;20220;-69
2022/12/26 15:20:29;;;;;;;1.10;1.00;;;9.30;99.90;;;;;;4953102;28;20676;-69
2022/12/26 15:23:28;;;;;;;1.70;1.25;;;9.30;99.90;;;;;;4953816;29;20594;-70
2022/12/26 15:26:24;;;;;;;1.63;1.50;;;9.20;99.90;;;;;;4949830;29;20704;-70
2022/12/26 15:29:22;;;;;;;1.50;0.90;;;9.30;99.90;;;;;;4953610;29;20224;-69
2022/12/26 15:31:58;;;;;;;1.90;0.90;;;9.30;99.90;;;;;;4953407;28;20260;-69
2022/12/26 15:34:53;;;;;;;1.30;1.10;;;9.30;99.90;;;;;;4953605;29;20221;-69
2022/12/26 15:37:54;;;;;;;1.30;1.15;;;9.30;99.90;;;;;;4953561;29;20212;-69
2022/12/26 15:40:23;;;;;;;1.23;1.02;;;9.30;99.90;;;;;;4943866;29;20204;-69
2022/12/26 15:43:06;;;;;;;0.90;0.80;;;9.20;99.90;;;;;;4954258;28;20220;-70